createdAt,value
2023-04-15T00:01:19.787Z,45.73
2023-04-15T00:03:48.785Z,45.38
2023-04-15T00:06:17.420Z,45.51
2023-04-15T00:08:45.754Z,45.44
2023-04-15T00:11:15.972Z,45.39
2023-04-15T00:13:44.401Z,45.63
2023-04-15T00:16:12.954Z,45.29
2023-04-15T00:18:41.397Z,45.48
2023-04-15T00:21:10.169Z,45.62
2023-04-15T00:23:38.555Z,45.51
2023-04-15T00:26:07.559Z,45.39
2023-04-15T00:28:37.249Z,45.40
2023-04-15T00:31:05.846Z,45.32
2023-04-15T00:33:34.219Z,45.52
2023-04-15T00:36:02.909Z,45.35
2023-04-15T00:38:31.588Z,45.31
2023-04-15T00:40:59.993Z,45.46
2023-04-15T00:43:28.415Z,45.30
2023-04-15T00:45:58.582Z,45.57
2023-04-15T00:48:27.211Z,45.55
2023-04-15T00:50:55.596Z,45.44
2023-04-15T00:53:24.098Z,45.65
2023-04-15T00:55:52.457Z,45.35
2023-04-15T00:58:20.841Z,45.30
2023-04-15T01:00:49.361Z,45.49
2023-04-15T01:03:19.216Z,45.55
2023-04-15T01:05:47.956Z,45.47
2023-04-15T01:08:16.308Z,45.26
2023-04-15T01:10:44.780Z,45.39
2023-04-15T01:13:13.133Z,45.38
2023-04-15T01:20:31.993Z,45.33
2023-04-15T01:22:24.315Z,45.19
2023-04-15T01:24:57.925Z,45.35
2023-04-15T01:27:29.383Z,45.30
2023-04-15T01:30:29.393Z,45.53
2023-04-15T01:33:22.517Z,45.37
2023-04-15T01:36:05.699Z,45.36
2023-04-15T01:39:30.306Z,45.11
2023-04-15T01:47:16.974Z,45.27
2023-04-15T01:50:22.046Z,45.36
2023-04-15T01:52:59.716Z,45.31
2023-04-15T02:00:18.920Z,45.03
2023-04-15T02:03:11.359Z,45.31
2023-04-15T02:06:00.175Z,44.99
2023-04-15T02:09:12.779Z,45.23
2023-04-15T02:11:46.375Z,45.06
2023-04-15T02:14:40.770Z,45.03
2023-04-15T02:17:14.216Z,45.38
2023-04-15T02:19:48.638Z,44.87
2023-04-15T02:22:20.096Z,45.21
2023-04-15T02:28:13.730Z,45.06
2023-04-15T02:31:00.596Z,45.00
2023-04-15T02:33:35.165Z,45.18
2023-04-15T02:36:47.998Z,45.15
2023-04-15T02:40:21.205Z,45.10
2023-04-15T02:43:29.338Z,45.15
2023-04-15T02:46:39.257Z,45.24
2023-04-15T02:49:22.317Z,45.04
2023-04-15T02:52:22.109Z,45.01
2023-04-15T02:54:57.172Z,45.21
2023-04-15T03:05:15.831Z,45.07
2023-04-15T03:08:11.601Z,44.96
2023-04-15T03:15:52.031Z,44.86
2023-04-15T03:22:05.335Z,45.11
2023-04-15T03:24:56.822Z,44.76
2023-04-15T03:27:28.101Z,44.68
2023-04-15T03:30:17.237Z,44.72
2023-04-15T03:32:45.752Z,44.75
2023-04-15T03:35:14.232Z,44.83
2023-04-15T03:37:42.708Z,44.64
2023-04-15T03:40:14.065Z,44.81
2023-04-15T03:42:42.428Z,44.71
2023-04-15T03:45:12.529Z,44.93
2023-04-15T03:47:41.034Z,44.67
2023-04-15T03:50:10.108Z,44.85
2023-04-15T03:52:38.584Z,44.73
2023-04-15T03:55:08.523Z,44.59
2023-04-15T03:57:39.865Z,44.59
2023-04-15T04:00:10.175Z,44.82
2023-04-15T04:02:38.682Z,44.69
2023-04-15T04:05:08.281Z,44.70
2023-04-15T04:07:36.628Z,44.65
2023-04-15T04:10:05.478Z,44.76
2023-04-15T04:12:33.844Z,44.56
2023-04-15T04:15:03.719Z,44.58
2023-04-15T04:17:38.704Z,44.70
2023-04-15T04:20:09.213Z,44.48
2023-04-15T04:22:40.206Z,44.43
2023-04-15T04:25:10.264Z,44.62
2023-04-15T04:27:39.418Z,44.59
2023-04-15T04:30:10.619Z,44.55
2023-04-15T04:32:39.108Z,44.46
2023-04-15T04:35:08.266Z,44.57
2023-04-15T04:37:36.980Z,44.41
2023-04-15T04:40:06.558Z,44.61
2023-04-15T04:42:35.697Z,44.32
2023-04-15T04:45:05.120Z,44.51
2023-04-15T04:47:34.907Z,44.55
2023-04-15T04:50:03.648Z,44.50
2023-04-15T04:52:32.077Z,44.53
2023-04-15T04:55:00.431Z,44.34
2023-04-15T04:57:28.845Z,44.48
2023-04-15T04:59:57.645Z,44.48
2023-04-15T05:02:27.622Z,44.34
2023-04-15T05:04:57.566Z,44.29
2023-04-15T05:07:25.991Z,44.52
2023-04-15T05:09:54.360Z,44.17
2023-04-15T05:12:22.760Z,44.63
2023-04-15T05:14:51.381Z,44.67
2023-04-15T05:17:19.762Z,44.73
2023-04-15T05:19:48.291Z,45.04
2023-04-15T05:22:18.040Z,44.72
2023-04-15T05:24:46.666Z,44.85
2023-04-15T05:27:15.066Z,44.93
2023-04-15T05:29:43.695Z,44.93
2023-04-15T05:32:12.118Z,45.19
2023-04-15T05:34:40.529Z,45.34
2023-04-15T05:37:08.889Z,45.68
2023-04-15T05:39:38.805Z,45.82
2023-04-15T05:42:07.671Z,46.13
2023-04-15T05:44:36.274Z,46.31
2023-04-15T05:47:05.950Z,46.09
2023-04-15T05:49:34.344Z,45.63
2023-04-15T05:52:02.718Z,45.79
2023-04-15T05:54:31.314Z,46.10
2023-04-15T05:57:01.110Z,45.78
2023-04-15T05:59:29.570Z,45.81
2023-04-15T06:01:58.066Z,45.77
2023-04-15T06:04:26.710Z,45.35
2023-04-15T06:06:55.497Z,45.26
2023-04-15T06:09:23.972Z,45.30
2023-04-15T06:11:53.182Z,45.41
2023-04-15T06:14:22.957Z,45.46
2023-04-15T06:16:51.503Z,45.33
2023-04-15T06:19:20.468Z,45.36
2023-04-15T06:21:48.856Z,45.30
2023-04-15T06:24:17.276Z,45.40
2023-04-15T06:26:45.671Z,45.86
2023-04-15T06:29:14.282Z,45.37
2023-04-15T06:31:44.106Z,45.25
2023-04-15T06:34:12.481Z,45.49
2023-04-15T06:36:40.898Z,45.18
2023-04-15T06:39:09.286Z,44.91
2023-04-15T06:41:37.748Z,45.50
2023-04-15T06:44:06.569Z,45.44
2023-04-15T06:46:35.027Z,45.47
2023-04-15T06:49:05.511Z,45.37
2023-04-15T06:51:33.898Z,45.58
2023-04-15T06:54:02.477Z,45.58
2023-04-15T06:56:31.552Z,45.47
2023-04-15T06:59:00.128Z,45.63
2023-04-15T07:01:28.852Z,45.59
2023-04-15T07:03:57.276Z,45.20
2023-04-15T07:06:27.723Z,45.21
2023-04-15T07:08:57.450Z,45.52
2023-04-15T07:11:27.112Z,45.47
2023-04-15T07:13:55.569Z,45.43
2023-04-15T07:16:23.987Z,45.45
2023-04-15T07:18:52.404Z,45.38
2023-04-15T07:21:20.762Z,45.31
2023-04-15T07:23:50.544Z,45.40
2023-04-15T07:26:19.166Z,45.33
2023-04-15T07:28:47.591Z,45.61
2023-04-15T07:31:16.590Z,45.68
2023-04-15T07:33:45.110Z,45.56
2023-04-15T07:36:13.545Z,46.05
2023-04-15T07:38:41.948Z,46.10
2023-04-15T07:41:11.775Z,45.88
2023-04-15T07:43:40.132Z,45.59
2023-04-15T07:46:08.531Z,45.75
2023-04-15T07:48:37.554Z,45.57
2023-04-15T07:51:06.881Z,45.38
2023-04-15T07:53:35.747Z,45.61
2023-04-15T07:56:04.127Z,45.34
2023-04-15T07:58:33.937Z,45.64
2023-04-15T08:01:02.328Z,45.66
2023-04-15T08:03:30.946Z,45.50
2023-04-15T08:05:59.601Z,45.52
2023-04-15T08:08:28.128Z,45.28
2023-04-15T08:10:56.651Z,45.24
2023-04-15T08:13:24.996Z,45.39
2023-04-15T08:16:14.744Z,45.59
2023-04-15T08:18:43.211Z,45.28
2023-04-15T08:21:11.891Z,45.46
2023-04-15T08:23:40.333Z,45.40
2023-04-15T08:26:08.812Z,45.31
2023-04-15T08:28:38.170Z,45.32
2023-04-15T08:31:07.917Z,45.53
2023-04-15T08:33:36.384Z,45.33
2023-04-15T08:36:04.848Z,45.62
2023-04-15T08:38:33.562Z,45.69
2023-04-15T08:41:04.088Z,45.61
2023-04-15T08:43:36.277Z,45.42
2023-04-15T08:46:05.061Z,46.07
2023-04-15T08:48:36.006Z,46.33
2023-04-15T08:51:04.602Z,46.36
2023-04-15T08:53:33.828Z,46.04
2023-04-15T08:56:02.888Z,46.49
2023-04-15T08:58:31.287Z,46.45
2023-04-15T09:00:59.698Z,46.19
2023-04-15T09:03:28.184Z,46.14
2023-04-15T09:05:58.549Z,46.34
2023-04-15T09:08:27.007Z,46.28
2023-04-15T09:10:56.065Z,45.76
2023-04-15T09:13:24.434Z,45.52
2023-04-15T09:15:52.980Z,45.61
2023-04-15T09:18:30.001Z,44.64
2023-04-15T09:21:06.666Z,45.98
2023-04-15T09:23:35.163Z,44.82
2023-04-15T09:26:03.803Z,45.55
2023-04-15T09:28:32.237Z,45.64
2023-04-15T09:31:01.294Z,45.01
2023-04-15T09:33:30.501Z,45.65
2023-04-15T09:36:02.390Z,45.44
2023-04-15T09:38:31.149Z,45.61
2023-04-15T09:40:59.707Z,44.92
2023-04-15T09:43:39.263Z,45.14
2023-04-15T09:46:07.785Z,44.39
2023-04-15T09:48:36.373Z,44.57
2023-04-15T09:51:06.308Z,45.30
2023-04-15T09:53:36.702Z,45.52
2023-04-15T09:56:08.036Z,45.46
2023-04-15T09:58:38.797Z,44.39
2023-04-15T10:01:09.257Z,44.80
2023-04-15T10:03:38.163Z,45.36
2023-04-15T10:06:08.174Z,44.78
2023-04-15T10:08:36.732Z,44.89
2023-04-15T10:11:05.369Z,43.83
2023-04-15T10:13:36.185Z,44.62
2023-04-15T10:16:08.218Z,44.93
2023-04-15T10:18:37.630Z,45.12
2023-04-15T10:21:07.565Z,45.48
2023-04-15T10:23:36.151Z,44.93
2023-04-15T10:26:05.295Z,45.07
2023-04-15T10:28:33.624Z,45.13
2023-04-15T10:31:02.054Z,44.98
2023-04-15T10:33:30.430Z,45.34
2023-04-15T10:35:58.882Z,44.53
2023-04-15T10:38:36.305Z,44.80
2023-04-15T10:41:20.486Z,44.72
2023-04-15T10:43:51.554Z,44.76
2023-04-15T10:46:38.734Z,44.96
2023-04-15T10:49:11.391Z,44.94
2023-04-15T10:51:41.780Z,44.79
2023-04-15T10:54:15.688Z,44.94
2023-04-15T10:56:44.848Z,44.62
2023-04-15T10:59:13.289Z,44.62
2023-04-15T11:01:56.713Z,44.82
2023-04-15T11:04:57.618Z,44.59
2023-04-15T11:07:37.392Z,44.84
2023-04-15T11:10:49.841Z,44.60
2023-04-15T11:13:19.103Z,44.89
2023-04-15T11:15:47.942Z,43.92
2023-04-15T11:18:17.476Z,43.92
2023-04-15T11:20:47.398Z,44.57
2023-04-15T11:23:17.061Z,44.28
2023-04-15T11:25:46.928Z,44.57
2023-04-15T11:28:15.495Z,44.64
2023-04-15T11:30:44.775Z,44.20
2023-04-15T11:33:13.996Z,44.26
2023-04-15T11:35:43.036Z,44.24
2023-04-15T11:38:12.603Z,44.07
2023-04-15T11:40:41.222Z,44.17
2023-04-15T11:43:11.896Z,44.35
2023-04-15T11:45:53.082Z,44.41
2023-04-15T11:48:23.708Z,44.09
2023-04-15T11:50:56.115Z,44.03
2023-04-15T11:53:24.706Z,44.02
2023-04-15T11:55:53.906Z,43.97
2023-04-15T11:58:24.780Z,43.50
2023-04-15T12:00:54.885Z,44.05
2023-04-15T12:03:27.682Z,43.58
2023-04-15T12:06:07.654Z,44.01
2023-04-15T12:09:04.759Z,44.48
2023-04-15T12:11:36.084Z,44.49
2023-04-15T12:14:23.506Z,44.39
2023-04-15T12:16:54.083Z,44.30
2023-04-15T12:19:25.973Z,44.04
2023-04-15T12:21:56.171Z,44.02
2023-04-15T12:24:25.343Z,44.15
2023-04-15T12:26:55.086Z,44.07
2023-04-15T12:29:28.170Z,44.10
2023-04-15T12:31:57.499Z,43.77
2023-04-15T12:34:30.639Z,44.15
2023-04-15T12:36:59.987Z,43.61
2023-04-15T12:39:30.834Z,43.61
2023-04-15T12:42:00.335Z,43.68
2023-04-15T12:44:30.650Z,43.74
2023-04-15T12:46:59.980Z,43.67
2023-04-15T12:49:28.770Z,44.05
2023-04-15T12:51:59.585Z,43.93
2023-04-15T12:54:28.644Z,44.14
2023-04-15T12:56:57.137Z,44.25
2023-04-15T12:59:25.685Z,43.17
2023-04-15T13:01:55.630Z,43.00
2023-04-15T13:04:24.249Z,43.58
2023-04-15T13:06:52.935Z,43.84
2023-04-15T13:09:22.557Z,43.64
2023-04-15T13:11:51.281Z,43.50
2023-04-15T13:14:19.799Z,43.65
2023-04-15T13:16:48.225Z,43.48
2023-04-15T13:19:18.050Z,43.74
2023-04-15T13:21:46.508Z,43.61
2023-04-15T13:24:14.978Z,42.60
2023-04-15T13:26:43.502Z,42.98
2023-04-15T13:29:12.472Z,43.06
2023-04-15T13:31:41.170Z,42.19
2023-04-15T13:34:09.670Z,42.62
2023-04-15T13:36:39.492Z,42.96
2023-04-15T13:39:07.946Z,43.08
2023-04-15T13:41:37.560Z,42.82
2023-04-15T13:44:06.604Z,43.08
2023-04-15T13:46:35.480Z,43.38
2023-04-15T13:49:03.939Z,43.32
2023-04-15T13:51:33.004Z,42.98
2023-04-15T13:54:03.010Z,43.41
2023-04-15T13:56:32.384Z,43.21
2023-04-15T13:59:02.459Z,43.20
2023-04-15T14:01:30.877Z,43.49
2023-04-15T14:03:59.365Z,43.45
2023-04-15T14:06:28.573Z,43.51
2023-04-15T14:08:57.018Z,43.19
2023-04-15T14:11:26.822Z,43.17
2023-04-15T14:13:55.226Z,43.47
2023-04-15T14:16:23.682Z,43.49
2023-04-15T14:18:52.105Z,43.47
2023-04-15T14:21:20.847Z,43.32
2023-04-15T14:23:49.578Z,43.51
2023-04-15T14:26:17.981Z,43.48
2023-04-15T14:28:48.503Z,43.69
2023-04-15T14:31:17.049Z,43.25
2023-04-15T14:33:45.457Z,43.26
2023-04-15T14:36:13.846Z,43.53
2023-04-15T14:38:42.196Z,43.34
2023-04-15T14:41:10.974Z,43.50
2023-04-15T14:43:39.500Z,43.33
2023-04-15T14:46:09.667Z,43.54
2023-04-15T14:48:38.117Z,43.82
2023-04-15T14:51:06.882Z,44.03
2023-04-15T14:53:35.379Z,42.87
2023-04-15T14:56:03.938Z,41.04
2023-04-15T14:58:33.301Z,38.99
2023-04-15T15:01:02.067Z,38.94
2023-04-15T15:03:32.386Z,37.36
2023-04-15T15:06:00.836Z,34.15
2023-04-15T15:08:29.185Z,35.78
2023-04-15T15:10:57.539Z,34.78
2023-04-15T15:13:26.494Z,36.08
2023-04-15T15:15:54.953Z,34.83
2023-04-15T15:18:25.526Z,34.98
2023-04-15T15:20:55.361Z,33.82
2023-04-15T15:23:23.789Z,33.74
2023-04-15T15:25:52.224Z,34.06
2023-04-15T15:28:21.878Z,34.46
2023-04-15T15:30:50.290Z,33.56
2023-04-15T15:33:18.674Z,34.44
2023-04-15T15:35:47.280Z,34.30
2023-04-15T15:38:17.103Z,34.06
2023-04-15T15:40:45.580Z,34.46
2023-04-15T15:43:14.205Z,33.31
2023-04-15T15:45:42.675Z,32.23
2023-04-15T15:48:11.279Z,34.12
2023-04-15T15:50:39.695Z,33.79
2023-04-15T15:53:08.138Z,33.90
2023-04-15T15:55:37.906Z,34.20
2023-04-15T15:58:06.371Z,33.57
2023-04-15T16:00:34.882Z,32.89
2023-04-15T16:03:07.117Z,34.11
2023-04-15T16:05:36.339Z,33.14
2023-04-15T16:08:04.708Z,33.10
2023-04-15T16:10:33.120Z,32.62
2023-04-15T16:13:03.161Z,33.66
2023-04-15T16:15:31.570Z,32.47
2023-04-15T16:18:00.117Z,32.49
2023-04-15T16:20:28.940Z,31.86
2023-04-15T16:22:58.301Z,32.77
2023-04-15T16:25:26.710Z,32.60
2023-04-15T16:28:03.438Z,31.69
2023-04-15T16:30:36.992Z,33.77
2023-04-15T16:33:05.775Z,33.40
2023-04-15T16:35:34.910Z,33.65
2023-04-15T16:38:03.636Z,33.54
2023-04-15T16:40:32.979Z,34.79
2023-04-15T16:43:01.472Z,34.10
2023-04-15T16:45:30.352Z,33.35
2023-04-15T16:48:00.263Z,31.89
2023-04-15T16:50:28.832Z,34.50
2023-04-15T16:52:57.277Z,34.67
2023-04-15T16:55:25.795Z,34.78
2023-04-15T16:58:01.901Z,35.93
2023-04-15T17:00:32.964Z,35.69
2023-04-15T17:03:03.480Z,35.41
2023-04-15T17:05:32.104Z,35.05
2023-04-15T17:08:00.504Z,35.35
2023-04-15T17:10:29.011Z,35.39
2023-04-15T17:12:57.675Z,35.14
2023-04-15T17:15:26.201Z,35.75
2023-04-15T17:17:54.756Z,35.80
2023-04-15T17:20:24.729Z,35.98
2023-04-15T17:22:53.266Z,36.27
2023-04-15T17:25:21.916Z,36.45
2023-04-15T17:27:50.387Z,37.13
2023-04-15T17:30:18.897Z,36.45
2023-04-15T17:32:47.406Z,36.87
2023-04-15T17:35:15.859Z,37.40
2023-04-15T17:37:48.337Z,36.28
2023-04-15T17:40:16.908Z,36.88
2023-04-15T17:42:45.700Z,36.01
2023-04-15T17:45:15.660Z,37.23
2023-04-15T17:47:44.480Z,37.07
2023-04-15T17:50:13.191Z,36.27
2023-04-15T17:52:41.667Z,37.31
2023-04-15T17:55:11.695Z,37.93
2023-04-15T17:57:40.169Z,38.30
2023-04-15T18:00:11.331Z,38.45
2023-04-15T18:02:40.228Z,38.33
2023-04-15T18:05:09.734Z,38.39
2023-04-15T18:07:38.276Z,38.25
2023-04-15T18:10:10.454Z,38.27
2023-04-15T18:12:38.858Z,38.51
2023-04-15T18:15:09.556Z,38.50
2023-04-15T18:17:38.007Z,38.15
2023-04-15T18:20:07.916Z,38.32
2023-04-15T18:22:36.621Z,38.56
2023-04-15T18:25:05.756Z,38.73
2023-04-15T18:27:35.875Z,38.91
2023-04-15T18:30:04.621Z,38.86
2023-04-15T18:32:33.099Z,38.72
2023-04-15T18:35:02.223Z,38.51
2023-04-15T18:37:30.667Z,39.21
2023-04-15T18:39:59.246Z,39.83
2023-04-15T18:42:27.658Z,39.23
2023-04-15T18:44:57.518Z,38.87
2023-04-15T18:47:27.284Z,39.94
2023-04-15T18:49:55.853Z,40.52
2023-04-15T18:52:24.265Z,40.42
2023-04-15T18:54:52.678Z,40.49
2023-04-15T18:57:23.657Z,40.31
2023-04-15T19:00:01.573Z,40.39
2023-04-15T19:02:30.126Z,39.57
2023-04-15T19:04:58.631Z,40.11
2023-04-15T19:07:27.220Z,40.49
2023-04-15T19:09:55.667Z,39.96
2023-04-15T19:12:24.158Z,40.16
2023-04-15T19:14:52.707Z,40.44
2023-04-15T19:17:22.557Z,40.11
2023-04-15T19:19:51.025Z,40.13
2023-04-15T19:22:19.577Z,39.95
2023-04-15T19:24:48.014Z,39.81
2023-04-15T19:27:16.538Z,39.74
2023-04-15T19:29:45.405Z,39.94
2023-04-15T19:32:14.436Z,40.40
2023-04-15T19:34:44.236Z,40.00
2023-04-15T19:37:12.959Z,39.51
2023-04-15T19:39:41.377Z,39.85
2023-04-15T19:42:09.916Z,40.05
2023-04-15T19:44:42.723Z,40.18
2023-04-15T19:47:11.248Z,40.37
2023-04-15T19:49:39.751Z,40.48
2023-04-15T19:52:09.549Z,40.49
2023-04-15T19:54:38.024Z,40.69
2023-04-15T19:57:06.637Z,40.83
2023-04-15T19:59:35.403Z,40.64
2023-04-15T20:02:04.103Z,40.82
2023-04-15T20:04:32.814Z,40.66
2023-04-15T20:07:01.416Z,40.58
2023-04-15T20:09:31.255Z,40.83
2023-04-15T20:12:05.650Z,40.74
2023-04-15T20:14:48.267Z,40.99
2023-04-15T20:17:16.711Z,40.66
2023-04-15T20:19:45.236Z,40.91
2023-04-15T20:22:13.715Z,40.94
2023-04-15T20:24:43.432Z,41.00
2023-04-15T20:27:11.843Z,40.87
2023-04-15T20:29:40.699Z,40.91
2023-04-15T20:32:11.491Z,40.81
2023-04-15T20:34:41.316Z,40.85
2023-04-15T20:37:09.804Z,41.05
2023-04-15T20:39:38.260Z,41.02
2023-04-15T20:42:10.229Z,40.98
2023-04-15T20:44:39.525Z,40.87
2023-04-15T20:47:08.165Z,41.12
2023-04-15T20:49:36.874Z,40.92
2023-04-15T20:52:05.697Z,41.16
2023-04-15T20:54:34.171Z,40.83
2023-04-15T20:57:02.824Z,40.98
2023-04-15T20:59:32.927Z,40.89
2023-04-15T21:02:01.529Z,40.90
2023-04-15T21:04:30.058Z,41.29
2023-04-15T21:06:58.519Z,41.06
2023-04-15T21:09:27.008Z,41.21
2023-04-15T21:12:01.208Z,41.10
2023-04-15T21:14:32.461Z,40.98
2023-04-15T21:17:03.419Z,41.09
2023-04-15T21:19:31.775Z,41.30
2023-04-15T21:22:01.422Z,41.32
2023-04-15T21:24:30.029Z,41.19
2023-04-15T21:26:58.446Z,41.30
2023-04-15T21:29:27.203Z,41.11
2023-04-15T21:31:57.055Z,41.35
2023-04-15T21:34:25.447Z,41.27
2023-04-15T21:36:53.804Z,41.24
2023-04-15T21:39:22.266Z,41.41
2023-04-15T21:41:50.952Z,41.16
2023-04-15T21:44:19.352Z,41.39
2023-04-15T21:46:47.739Z,41.34
2023-04-15T21:49:17.532Z,41.27
2023-04-15T21:51:46.512Z,41.54
2023-04-15T21:54:14.887Z,41.67
2023-04-15T21:56:43.755Z,41.41
2023-04-15T21:59:12.155Z,41.65
2023-04-15T22:01:40.659Z,41.35
2023-04-15T22:04:10.996Z,41.47
2023-04-15T22:06:41.296Z,41.66
2023-04-15T22:09:11.958Z,41.28
2023-04-15T22:11:41.925Z,41.57
2023-04-15T22:14:10.576Z,41.52
2023-04-15T22:16:39.017Z,41.59
2023-04-15T22:19:08.112Z,41.43
2023-04-15T22:21:36.972Z,41.40
2023-04-15T22:24:38.888Z,41.33
2023-04-15T22:26:56.874Z,41.64
2023-04-15T22:29:25.298Z,41.58
2023-04-15T22:31:54.020Z,41.73
2023-04-15T22:34:22.424Z,41.90
2023-04-15T22:36:50.890Z,41.81
2023-04-15T22:39:21.065Z,41.71
2023-04-15T22:41:50.828Z,41.83
2023-04-15T22:44:19.211Z,41.93
2023-04-15T22:46:47.744Z,41.71
2023-04-15T22:49:16.329Z,41.81
2023-04-15T22:51:45.132Z,41.90
2023-04-15T22:54:13.475Z,41.71
2023-04-15T22:56:43.239Z,41.69
2023-04-15T22:59:11.700Z,41.92
2023-04-15T23:01:40.182Z,41.99
2023-04-15T23:04:27.701Z,42.01
2023-04-15T23:06:56.919Z,41.91
2023-04-15T23:09:25.272Z,42.13
2023-04-15T23:11:56.343Z,41.97
2023-04-15T23:14:26.180Z,41.85
2023-04-15T23:16:54.667Z,42.13
2023-04-15T23:19:23.044Z,41.92
2023-04-15T23:21:51.920Z,42.01
2023-04-15T23:24:20.301Z,42.14
2023-04-15T23:26:48.644Z,42.04
2023-04-15T23:29:18.377Z,42.03
2023-04-15T23:31:46.797Z,42.12
2023-04-15T23:34:15.257Z,41.90
2023-04-15T23:36:43.659Z,42.00
2023-04-15T23:39:12.231Z,42.13
2023-04-15T23:41:41.170Z,42.12
2023-04-15T23:44:09.905Z,42.02
2023-04-15T23:46:39.955Z,42.02
2023-04-15T23:49:08.584Z,42.29
2023-04-15T23:51:37.388Z,42.13
2023-04-15T23:54:05.904Z,42.15
2023-04-15T23:56:34.387Z,42.40
2023-04-15T23:59:02.794Z,42.25
